Flight Number: EUR3026 Duration: 11:30
Departure: Tel Aviv Ben Gurion (LLBG) at 08:00 Distance: 4920 Nm
Arrival: John F Kennedy Int'l (KJFK) at 19:30 Equipment: B777

Weather Information
Ben-Gurion International Airport, Israel (LLBG) 32-00N 034-54E 49M Nov 18, 2017 - 06:50 AM EST / 2017.11.18 1150 UTC
Wind: from the WNW (300 degrees) at 6 MPH (5 KT):0
Visibility: 5 mile(s):0 Temperature: 77 F (25 C) Dew Point: 66 F (19 C) Relative Humidity: 69% Pressure (altimeter): 29.83 in. Hg (1010 hPa)
ob: LLBG 181150Z 30005KT 9000 NSC 25/19 Q1010 NOSIG cycle: 12
Sunrise: 04:15 Sunset: 14:36 (UTC)

KENNEDY INTERNATIONAL AIRPORT , NY, United States (KJFK) 40-38N 073-46W 9M Nov 18, 2017 - 06:51 AM EST / 2017.11.18 1151 UTC
Wind: Calm:0
Visibility: 10 mile(s):0
Sky conditions: mostly cloudy Temperature: 32.0 F (0.0 C) Dew Point: 26.1 F (-3.3 C) Relative Humidity: 78% Pressure (altimeter): 30 in. Hg (1015 hPa) Pressure tendency: 0.01 inches (0.4 hPa) lower than three hours ago
ob: KJFK 181151Z 00000KT 10SM FEW150 BKN250 00/M03 A3000 RMK AO2 SLP159 T00001033 10033 21022 58004 cycle: 12
Sunrise: 11:49 Sunset: 21:31 (UTC)

TAF:2017/11/18 12:31 TAF KJFK 181127Z 1812/1918 VRB05KT P6SM SCT250 FM181400 20012G18KT P6SM BKN200 FM181800 20016G26KT P6SM VCSH SCT050 BKN100 FM190000 20020G30KT 6SM -SHRA BR SCT015 BKN030 FM190800 21022G32KT 3SM SHRA BR SCT007 BKN015 FM191400 24026G35KT 5SM -SHRA BR SCT008 BKN020 FM191600 29028G37KT P6SM BKN030

Previous Pireps for this route
Date Aircraft Flight time Fuel used Landing rate On time
2016-02-03A34010.29201758-289Charter
(pireps marked green are flown by you)

Route map